sensor_id;sensor_type;location;lat;lon;timestamp;P1;durP1;ratioP1;P2;durP2;ratioP2
5742;SDS011;2896;53.500;10.020;2023-01-13T00:02:10;1.63;;;1.60;;
5742;SDS011;2896;53.500;10.020;2023-01-13T00:04:37;1.27;;;1.27;;
5742;SDS011;2896;53.500;10.020;2023-01-13T00:07:03;1.90;;;1.80;;
5742;SDS011;2896;53.500;10.020;2023-01-13T00:09:31;2.10;;;2.00;;
5742;SDS011;2896;53.500;10.020;2023-01-13T00:11:58;4.20;;;1.90;;
5742;SDS011;2896;53.500;10.020;2023-01-13T00:14:24;1.50;;;1.50;;
5742;SDS011;2896;53.500;10.020;2023-01-13T00:16:53;2.00;;;1.67;;
5742;SDS011;2896;53.500;10.020;2023-01-13T00:19:20;1.50;;;1.40;;
5742;SDS011;2896;53.500;10.020;2023-01-13T00:21:47;1.90;;;1.37;;
5742;SDS011;2896;53.500;10.020;2023-01-13T00:24:13;1.60;;;1.50;;
5742;SDS011;2896;53.500;10.020;2023-01-13T00:26:41;1.93;;;1.30;;
5742;SDS011;2896;53.500;10.020;2023-01-13T00:29:08;4.90;;;1.53;;
5742;SDS011;2896;53.500;10.020;2023-01-13T00:31:34;1.07;;;1.07;;
5742;SDS011;2896;53.500;10.020;2023-01-13T00:34:01;3.33;;;1.50;;
5742;SDS011;2896;53.500;10.020;2023-01-13T00:36:28;1.43;;;1.33;;
5742;SDS011;2896;53.500;10.020;2023-01-13T00:38:55;1.83;;;1.50;;
5742;SDS011;2896;53.500;10.020;2023-01-13T00:41:23;3.03;;;1.70;;
5742;SDS011;2896;53.500;10.020;2023-01-13T00:43:52;4.40;;;1.53;;
5742;SDS011;2896;53.500;10.020;2023-01-13T00:46:19;7.57;;;1.67;;
5742;SDS011;2896;53.500;10.020;2023-01-13T00:48:46;4.27;;;1.60;;
5742;SDS011;2896;53.500;10.020;2023-01-13T00:51:16;3.50;;;1.57;;
5742;SDS011;2896;53.500;10.020;2023-01-13T00:53:44;6.30;;;1.50;;
5742;SDS011;2896;53.500;10.020;2023-01-13T00:56:13;1.67;;;1.57;;
5742;SDS011;2896;53.500;10.020;2023-01-13T00:58:42;7.20;;;2.00;;
5742;SDS011;2896;53.500;10.020;2023-01-13T01:01:13;8.97;;;2.30;;
5742;SDS011;2896;53.500;10.020;2023-01-13T01:03:41;12.73;;;2.13;;
5742;SDS011;2896;53.500;10.020;2023-01-13T01:06:10;5.47;;;1.57;;
5742;SDS011;2896;53.500;10.020;2023-01-13T01:08:38;11.53;;;1.87;;
5742;SDS011;2896;53.500;10.020;2023-01-13T01:11:05;13.37;;;1.37;;
5742;SDS011;2896;53.500;10.020;2023-01-13T01:13:34;4.40;;;2.13;;
5742;SDS011;2896;53.500;10.020;2023-01-13T01:16:02;9.13;;;1.70;;
5742;SDS011;2896;53.500;10.020;2023-01-13T01:18:32;7.60;;;2.20;;
5742;SDS011;2896;53.500;10.020;2023-01-13T01:20:59;7.13;;;2.70;;
5742;SDS011;2896;53.500;10.020;2023-01-13T01:23:26;8.87;;;1.90;;
5742;SDS011;2896;53.500;10.020;2023-01-13T01:25:53;6.00;;;1.63;;
5742;SDS011;2896;53.500;10.020;2023-01-13T01:28:20;3.73;;;2.00;;
5742;SDS011;2896;53.500;10.020;2023-01-13T01:30:46;4.97;;;1.83;;
5742;SDS011;2896;53.500;10.020;2023-01-13T01:33:13;12.27;;;2.77;;
5742;SDS011;2896;53.500;10.020;2023-01-13T01:35:42;6.73;;;2.30;;
5742;SDS011;2896;53.500;10.020;2023-01-13T01:38:08;18.17;;;2.90;;
5742;SDS011;2896;53.500;10.020;2023-01-13T01:40:35;8.97;;;2.00;;
5742;SDS011;2896;53.500;10.020;2023-01-13T01:43:01;8.97;;;2.90;;
5742;SDS011;2896;53.500;10.020;2023-01-13T01:45:51;6.90;;;2.00;;
5742;SDS011;2896;53.500;10.020;2023-01-13T01:48:18;10.83;;;2.47;;
5742;SDS011;2896;53.500;10.020;2023-01-13T01:50:46;6.20;;;3.03;;
5742;SDS011;2896;53.500;10.020;2023-01-13T01:53:13;9.23;;;2.60;;
5742;SDS011;2896;53.500;10.020;2023-01-13T01:55:44;3.67;;;2.17;;
5742;SDS011;2896;53.500;10.020;2023-01-13T01:58:12;7.77;;;2.10;;
5742;SDS011;2896;53.500;10.020;2023-01-13T02:00:44;3.20;;;1.67;;
5742;SDS011;2896;53.500;10.020;2023-01-13T02:03:11;7.30;;;2.00;;
5742;SDS011;2896;53.500;10.020;2023-01-13T02:05:39;8.60;;;2.00;;
5742;SDS011;2896;53.500;10.020;2023-01-13T02:08:09;5.33;;;1.83;;
5742;SDS011;2896;53.500;10.020;2023-01-13T02:10:37;6.40;;;2.50;;
5742;SDS011;2896;53.500;10.020;2023-01-13T02:13:07;7.07;;;3.20;;
5742;SDS011;2896;53.500;10.020;2023-01-13T02:15:37;7.10;;;2.40;;
5742;SDS011;2896;53.500;10.020;2023-01-13T02:18:11;12.23;;;3.13;;
5742;SDS011;2896;53.500;10.020;2023-01-13T02:20:52;10.13;;;3.00;;
5742;SDS011;2896;53.500;10.020;2023-01-13T02:23:34;12.20;;;3.90;;
5742;SDS011;2896;53.500;10.020;2023-01-13T02:26:56;10.37;;;3.70;;
5742;SDS011;2896;53.500;10.020;2023-01-13T02:29:59;13.00;;;3.27;;
5742;SDS011;2896;53.500;10.020;2023-01-13T02:32:57;17.00;;;3.07;;
5742;SDS011;2896;53.500;10.020;2023-01-13T02:35:33;14.50;;;3.40;;
5742;SDS011;2896;53.500;10.020;2023-01-13T02:38:05;10.00;;;3.93;;
5742;SDS011;2896;53.500;10.020;2023-01-13T02:40:35;13.07;;;3.97;;
5742;SDS011;2896;53.500;10.020;2023-01-13T02:43:07;16.17;;;4.20;;
5742;SDS011;2896;53.500;10.020;2023-01-13T02:45:59;12.30;;;3.50;;
5742;SDS011;2896;53.500;10.020;2023-01-13T02:48:30;10.70;;;3.70;;
5742;SDS011;2896;53.500;10.020;2023-01-13T02:50:59;14.10;;;4.60;;
5742;SDS011;2896;53.500;10.020;2023-01-13T02:53:30;20.90;;;3.37;;
5742;SDS011;2896;53.500;10.020;2023-01-13T02:56:01;11.63;;;3.33;;
5742;SDS011;2896;53.500;10.020;2023-01-13T02:58:30;21.10;;;3.20;;
5742;SDS011;2896;53.500;10.020;2023-01-13T03:01:00;7.13;;;2.60;;
5742;SDS011;2896;53.500;10.020;2023-01-13T03:03:26;9.37;;;3.00;;
5742;SDS011;2896;53.500;10.020;2023-01-13T03:05:54;6.80;;;2.80;;
5742;SDS011;2896;53.500;10.020;2023-01-13T03:08:32;9.70;;;3.57;;
5742;SDS011;2896;53.500;10.020;2023-01-13T03:11:07;14.90;;;3.70;;
5742;SDS011;2896;53.500;10.020;2023-01-13T03:13:44;15.60;;;3.70;;
5742;SDS011;2896;53.500;10.020;2023-01-13T03:16:25;19.27;;;4.00;;
5742;SDS011;2896;53.500;10.020;2023-01-13T03:19:00;13.70;;;3.23;;
5742;SDS011;2896;53.500;10.020;2023-01-13T03:21:38;12.73;;;3.70;;
5742;SDS011;2896;53.500;10.020;2023-01-13T03:24:08;15.93;;;3.40;;
5742;SDS011;2896;53.500;10.020;2023-01-13T03:26:42;19.37;;;5.27;;
5742;SDS011;2896;53.500;10.020;2023-01-13T03:29:14;12.80;;;4.83;;
5742;SDS011;2896;53.500;10.020;2023-01-13T03:31:58;20.23;;;3.70;;
5742;SDS011;2896;53.500;10.020;2023-01-13T03:34:30;27.20;;;5.23;;
5742;SDS011;2896;53.500;10.020;2023-01-13T03:37:00;16.97;;;4.60;;
5742;SDS011;2896;53.500;10.020;2023-01-13T03:39:31;20.80;;;4.70;;
5742;SDS011;2896;53.500;10.020;2023-01-13T03:42:02;24.30;;;4.67;;
5742;SDS011;2896;53.500;10.020;2023-01-13T03:44:33;27.33;;;4.90;;
5742;SDS011;2896;53.500;10.020;2023-01-13T03:47:07;30.63;;;5.33;;
5742;SDS011;2896;53.500;10.020;2023-01-13T03:49:38;23.60;;;5.10;;
5742;SDS011;2896;53.500;10.020;2023-01-13T03:52:12;21.60;;;4.23;;
5742;SDS011;2896;53.500;10.020;2023-01-13T03:54:44;28.93;;;4.93;;
5742;SDS011;2896;53.500;10.020;2023-01-13T03:57:17;26.90;;;5.20;;
5742;SDS011;2896;53.500;10.020;2023-01-13T03:59:49;27.00;;;4.73;;
5742;SDS011;2896;53.500;10.020;2023-01-13T04:02:22;33.30;;;4.40;;
5742;SDS011;2896;53.500;10.020;2023-01-13T04:04:58;20.47;;;3.90;;
5742;SDS011;2896;53.500;10.020;2023-01-13T04:07:30;25.77;;;4.10;;
5742;SDS011;2896;53.500;10.020;2023-01-13T04:10:04;30.30;;;4.93;;
5742;SDS011;2896;53.500;10.020;2023-01-13T04:12:34;32.73;;;6.10;;
5742;SDS011;2896;53.500;10.020;2023-01-13T04:15:23;35.00;;;5.70;;
5742;SDS011;2896;53.500;10.020;2023-01-13T04:17:53;23.07;;;4.53;;
5742;SDS011;2896;53.500;10.020;2023-01-13T04:20:26;17.60;;;4.63;;
5742;SDS011;2896;53.500;10.020;2023-01-13T04:22:53;26.70;;;4.37;;
5742;SDS011;2896;53.500;10.020;2023-01-13T04:25:19;24.57;;;4.20;;
5742;SDS011;2896;53.500;10.020;2023-01-13T04:27:46;14.93;;;3.90;;
5742;SDS011;2896;53.500;10.020;2023-01-13T04:30:13;27.07;;;5.40;;
5742;SDS011;2896;53.500;10.020;2023-01-13T04:32:39;20.90;;;4.07;;
5742;SDS011;2896;53.500;10.020;2023-01-13T04:35:08;16.90;;;4.20;;
5742;SDS011;2896;53.500;10.020;2023-01-13T04:37:34;21.47;;;3.53;;
5742;SDS011;2896;53.500;10.020;2023-01-13T04:40:01;26.47;;;5.47;;
5742;SDS011;2896;53.500;10.020;2023-01-13T04:42:28;21.53;;;4.33;;
5742;SDS011;2896;53.500;10.020;2023-01-13T04:44:54;24.80;;;5.03;;
5742;SDS011;2896;53.500;10.020;2023-01-13T04:47:21;24.07;;;3.83;;
5742;SDS011;2896;53.500;10.020;2023-01-13T04:49:48;20.03;;;4.03;;
5742;SDS011;2896;53.500;10.020;2023-01-13T04:52:15;27.30;;;5.03;;
5742;SDS011;2896;53.500;10.020;2023-01-13T04:54:42;42.23;;;5.83;;
5742;SDS011;2896;53.500;10.020;2023-01-13T04:57:09;27.63;;;4.03;;
5742;SDS011;2896;53.500;10.020;2023-01-13T04:59:35;27.10;;;5.63;;
5742;SDS011;2896;53.500;10.020;2023-01-13T05:02:02;29.53;;;4.93;;
5742;SDS011;2896;53.500;10.020;2023-01-13T05:04:28;21.07;;;4.27;;
5742;SDS011;2896;53.500;10.020;2023-01-13T05:06:55;20.93;;;4.17;;
5742;SDS011;2896;53.500;10.020;2023-01-13T05:09:24;25.27;;;4.23;;
5742;SDS011;2896;53.500;10.020;2023-01-13T05:11:50;26.53;;;4.30;;
5742;SDS011;2896;53.500;10.020;2023-01-13T05:14:35;27.83;;;4.70;;
5742;SDS011;2896;53.500;10.020;2023-01-13T05:17:19;24.43;;;5.17;;
5742;SDS011;2896;53.500;10.020;2023-01-13T05:19:49;14.63;;;4.03;;
5742;SDS011;2896;53.500;10.020;2023-01-13T05:22:16;27.00;;;6.13;;
5742;SDS011;2896;53.500;10.020;2023-01-13T05:24:58;20.37;;;5.43;;
5742;SDS011;2896;53.500;10.020;2023-01-13T05:27:42;33.73;;;6.27;;
5742;SDS011;2896;53.500;10.020;2023-01-13T05:30:09;32.17;;;4.67;;
5742;SDS011;2896;53.500;10.020;2023-01-13T05:32:36;36.33;;;5.77;;
5742;SDS011;2896;53.500;10.020;2023-01-13T05:35:03;29.60;;;4.80;;
5742;SDS011;2896;53.500;10.020;2023-01-13T05:37:30;18.40;;;4.57;;
5742;SDS011;2896;53.500;10.020;2023-01-13T05:39:58;28.30;;;3.73;;
5742;SDS011;2896;53.500;10.020;2023-01-13T05:42:43;25.80;;;5.50;;
5742;SDS011;2896;53.500;10.020;2023-01-13T05:45:28;28.73;;;4.87;;
5742;SDS011;2896;53.500;10.020;2023-01-13T05:47:55;17.70;;;4.17;;
5742;SDS011;2896;53.500;10.020;2023-01-13T05:50:22;32.50;;;5.30;;
5742;SDS011;2896;53.500;10.020;2023-01-13T05:52:49;20.00;;;4.13;;
5742;SDS011;2896;53.500;10.020;2023-01-13T05:55:17;25.77;;;4.90;;
5742;SDS011;2896;53.500;10.020;2023-01-13T05:57:44;30.97;;;5.70;;
5742;SDS011;2896;53.500;10.020;2023-01-13T06:00:11;24.93;;;4.47;;
5742;SDS011;2896;53.500;10.020;2023-01-13T06:02:38;16.30;;;4.63;;
5742;SDS011;2896;53.500;10.020;2023-01-13T06:05:05;22.03;;;4.70;;
5742;SDS011;2896;53.500;10.020;2023-01-13T06:07:32;28.17;;;4.90;;
5742;SDS011;2896;53.500;10.020;2023-01-13T06:09:59;33.63;;;5.10;;
5742;SDS011;2896;53.500;10.020;2023-01-13T06:12:27;31.10;;;5.80;;
5742;SDS011;2896;53.500;10.020;2023-01-13T06:14:53;28.50;;;5.77;;
5742;SDS011;2896;53.500;10.020;2023-01-13T06:17:20;37.20;;;5.37;;
5742;SDS011;2896;53.500;10.020;2023-01-13T06:19:47;22.23;;;4.70;;
5742;SDS011;2896;53.500;10.020;2023-01-13T06:22:15;32.77;;;4.40;;
5742;SDS011;2896;53.500;10.020;2023-01-13T06:24:43;22.60;;;4.40;;
5742;SDS011;2896;53.500;10.020;2023-01-13T06:27:10;39.60;;;5.07;;
5742;SDS011;2896;53.500;10.020;2023-01-13T06:29:39;36.50;;;5.93;;
5742;SDS011;2896;53.500;10.020;2023-01-13T06:32:06;15.50;;;3.97;;
5742;SDS011;2896;53.500;10.020;2023-01-13T06:34:37;20.27;;;5.00;;
5742;SDS011;2896;53.500;10.020;2023-01-13T06:37:05;25.83;;;5.70;;
5742;SDS011;2896;53.500;10.020;2023-01-13T06:39:31;25.90;;;5.63;;
5742;SDS011;2896;53.500;10.020;2023-01-13T06:41:59;17.30;;;4.67;;
5742;SDS011;2896;53.500;10.020;2023-01-13T06:44:46;31.57;;;4.73;;
5742;SDS011;2896;53.500;10.020;2023-01-13T06:47:13;33.13;;;5.50;;
5742;SDS011;2896;53.500;10.020;2023-01-13T06:49:40;20.10;;;4.60;;
5742;SDS011;2896;53.500;10.020;2023-01-13T06:52:06;34.77;;;5.20;;
5742;SDS011;2896;53.500;10.020;2023-01-13T06:54:33;28.33;;;4.83;;
5742;SDS011;2896;53.500;10.020;2023-01-13T06:57:00;19.33;;;5.10;;
5742;SDS011;2896;53.500;10.020;2023-01-13T06:59:26;22.63;;;5.20;;
5742;SDS011;2896;53.500;10.020;2023-01-13T07:01:54;29.60;;;5.20;;
5742;SDS011;2896;53.500;10.020;2023-01-13T07:04:21;27.17;;;5.60;;
5742;SDS011;2896;53.500;10.020;2023-01-13T07:06:48;17.80;;;5.30;;
5742;SDS011;2896;53.500;10.020;2023-01-13T07:09:15;24.33;;;4.90;;
5742;SDS011;2896;53.500;10.020;2023-01-13T07:11:41;37.37;;;6.20;;
5742;SDS011;2896;53.500;10.020;2023-01-13T07:14:08;29.00;;;5.70;;
5742;SDS011;2896;53.500;10.020;2023-01-13T07:16:52;24.50;;;5.70;;
5742;SDS011;2896;53.500;10.020;2023-01-13T07:19:20;18.50;;;4.60;;
5742;SDS011;2896;53.500;10.020;2023-01-13T07:21:48;27.80;;;5.80;;
5742;SDS011;2896;53.500;10.020;2023-01-13T07:24:15;23.83;;;5.23;;
5742;SDS011;2896;53.500;10.020;2023-01-13T07:26:42;35.57;;;6.00;;
5742;SDS011;2896;53.500;10.020;2023-01-13T07:29:09;29.47;;;5.90;;
5742;SDS011;2896;53.500;10.020;2023-01-13T07:31:35;33.93;;;6.50;;
5742;SDS011;2896;53.500;10.020;2023-01-13T07:34:03;34.13;;;5.23;;
5742;SDS011;2896;53.500;10.020;2023-01-13T07:36:31;28.60;;;5.23;;
5742;SDS011;2896;53.500;10.020;2023-01-13T07:38:57;21.57;;;4.70;;
5742;SDS011;2896;53.500;10.020;2023-01-13T07:41:24;32.50;;;4.97;;
5742;SDS011;2896;53.500;10.020;2023-01-13T07:44:08;35.37;;;5.47;;
5742;SDS011;2896;53.500;10.020;2023-01-13T07:46:35;26.80;;;5.77;;
5742;SDS011;2896;53.500;10.020;2023-01-13T07:49:02;18.13;;;4.60;;
5742;SDS011;2896;53.500;10.020;2023-01-13T07:51:31;24.70;;;5.30;;
5742;SDS011;2896;53.500;10.020;2023-01-13T07:54:00;19.47;;;4.77;;
5742;SDS011;2896;53.500;10.020;2023-01-13T07:56:27;31.77;;;6.40;;
5742;SDS011;2896;53.500;10.020;2023-01-13T07:58:54;30.37;;;5.70;;
5742;SDS011;2896;53.500;10.020;2023-01-13T08:01:20;21.63;;;5.20;;
5742;SDS011;2896;53.500;10.020;2023-01-13T08:03:47;21.00;;;4.90;;
5742;SDS011;2896;53.500;10.020;2023-01-13T08:06:13;27.13;;;5.10;;
5742;SDS011;2896;53.500;10.020;2023-01-13T08:08:41;17.63;;;4.87;;
5742;SDS011;2896;53.500;10.020;2023-01-13T08:11:08;39.77;;;6.20;;
5742;SDS011;2896;53.500;10.020;2023-01-13T08:13:35;35.80;;;4.57;;
5742;SDS011;2896;53.500;10.020;2023-01-13T08:16:03;24.53;;;6.37;;
5742;SDS011;2896;53.500;10.020;2023-01-13T08:18:31;20.90;;;5.37;;
5742;SDS011;2896;53.500;10.020;2023-01-13T08:21:00;33.60;;;5.20;;
5742;SDS011;2896;53.500;10.020;2023-01-13T08:23:28;19.37;;;5.20;;
5742;SDS011;2896;53.500;10.020;2023-01-13T08:25:59;31.30;;;5.87;;
5742;SDS011;2896;53.500;10.020;2023-01-13T08:28:27;37.27;;;5.50;;
5742;SDS011;2896;53.500;10.020;2023-01-13T08:30:53;29.53;;;5.90;;
5742;SDS011;2896;53.500;10.020;2023-01-13T08:33:23;26.83;;;4.80;;
5742;SDS011;2896;53.500;10.020;2023-01-13T08:35:50;30.87;;;5.33;;
5742;SDS011;2896;53.500;10.020;2023-01-13T08:38:17;18.67;;;4.67;;
5742;SDS011;2896;53.500;10.020;2023-01-13T08:40:44;25.07;;;5.23;;
5742;SDS011;2896;53.500;10.020;2023-01-13T08:43:12;22.50;;;5.40;;
5742;SDS011;2896;53.500;10.020;2023-01-13T08:45:39;36.00;;;4.60;;
5742;SDS011;2896;53.500;10.020;2023-01-13T08:48:06;16.73;;;4.10;;
5742;SDS011;2896;53.500;10.020;2023-01-13T08:50:33;25.43;;;5.43;;
5742;SDS011;2896;53.500;10.020;2023-01-13T08:52:59;34.93;;;6.40;;
5742;SDS011;2896;53.500;10.020;2023-01-13T08:55:26;21.13;;;3.90;;
5742;SDS011;2896;53.500;10.020;2023-01-13T08:57:53;21.23;;;3.87;;
5742;SDS011;2896;53.500;10.020;2023-01-13T09:00:21;29.07;;;4.43;;
5742;SDS011;2896;53.500;10.020;2023-01-13T09:02:47;31.87;;;6.33;;
5742;SDS011;2896;53.500;10.020;2023-01-13T09:05:14;23.23;;;5.00;;
5742;SDS011;2896;53.500;10.020;2023-01-13T09:07:41;23.93;;;4.03;;
5742;SDS011;2896;53.500;10.020;2023-01-13T09:10:08;16.53;;;5.00;;
5742;SDS011;2896;53.500;10.020;2023-01-13T09:12:35;21.67;;;3.93;;
5742;SDS011;2896;53.500;10.020;2023-01-13T09:15:21;21.87;;;4.00;;
5742;SDS011;2896;53.500;10.020;2023-01-13T09:17:47;33.13;;;6.03;;
5742;SDS011;2896;53.500;10.020;2023-01-13T09:20:14;18.63;;;3.73;;
5742;SDS011;2896;53.500;10.020;2023-01-13T09:22:41;25.07;;;4.00;;
5742;SDS011;2896;53.500;10.020;2023-01-13T09:25:08;21.03;;;4.43;;
5742;SDS011;2896;53.500;10.020;2023-01-13T09:27:36;18.67;;;4.13;;
5742;SDS011;2896;53.500;10.020;2023-01-13T09:30:03;17.83;;;3.43;;
5742;SDS011;2896;53.500;10.020;2023-01-13T09:32:32;16.93;;;3.93;;
5742;SDS011;2896;53.500;10.020;2023-01-13T09:34:58;11.47;;;3.40;;
5742;SDS011;2896;53.500;10.020;2023-01-13T09:37:24;16.47;;;3.80;;
5742;SDS011;2896;53.500;10.020;2023-01-13T09:39:52;19.43;;;3.93;;
5742;SDS011;2896;53.500;10.020;2023-01-13T09:42:20;15.77;;;3.73;;
5742;SDS011;2896;53.500;10.020;2023-01-13T09:45:13;12.13;;;3.10;;
5742;SDS011;2896;53.500;10.020;2023-01-13T09:47:44;10.97;;;3.00;;
5742;SDS011;2896;53.500;10.020;2023-01-13T09:50:21;12.03;;;2.73;;
5742;SDS011;2896;53.500;10.020;2023-01-13T09:52:54;18.63;;;3.50;;
5742;SDS011;2896;53.500;10.020;2023-01-13T09:55:24;16.37;;;3.27;;
5742;SDS011;2896;53.500;10.020;2023-01-13T09:57:55;17.00;;;3.00;;
5742;SDS011;2896;53.500;10.020;2023-01-13T10:00:22;11.20;;;3.20;;
5742;SDS011;2896;53.500;10.020;2023-01-13T10:02:56;21.30;;;3.87;;
5742;SDS011;2896;53.500;10.020;2023-01-13T10:05:33;15.23;;;3.40;;
5742;SDS011;2896;53.500;10.020;2023-01-13T10:08:03;13.20;;;3.70;;
5742;SDS011;2896;53.500;10.020;2023-01-13T10:10:37;11.80;;;3.70;;
5742;SDS011;2896;53.500;10.020;2023-01-13T10:13:10;17.87;;;3.10;;
5742;SDS011;2896;53.500;10.020;2023-01-13T10:15:41;12.00;;;3.07;;
5742;SDS011;2896;53.500;10.020;2023-01-13T10:18:19;17.73;;;3.10;;
5742;SDS011;2896;53.500;10.020;2023-01-13T10:20:51;27.80;;;3.70;;
5742;SDS011;2896;53.500;10.020;2023-01-13T10:23:32;12.87;;;2.90;;
5742;SDS011;2896;53.500;10.020;2023-01-13T10:26:15;15.90;;;2.90;;
5742;SDS011;2896;53.500;10.020;2023-01-13T10:28:52;21.23;;;3.10;;
5742;SDS011;2896;53.500;10.020;2023-01-13T10:31:21;12.90;;;2.57;;
5742;SDS011;2896;53.500;10.020;2023-01-13T10:33:50;12.40;;;2.50;;
5742;SDS011;2896;53.500;10.020;2023-01-13T10:36:23;7.80;;;3.03;;
5742;SDS011;2896;53.500;10.020;2023-01-13T10:38:50;12.07;;;2.43;;
5742;SDS011;2896;53.500;10.020;2023-01-13T10:41:18;21.07;;;4.50;;
5742;SDS011;2896;53.500;10.020;2023-01-13T10:43:59;15.13;;;3.77;;
5742;SDS011;2896;53.500;10.020;2023-01-13T10:46:28;13.97;;;3.33;;
5742;SDS011;2896;53.500;10.020;2023-01-13T10:48:58;16.13;;;3.10;;
5742;SDS011;2896;53.500;10.020;2023-01-13T10:51:26;28.83;;;4.40;;
5742;SDS011;2896;53.500;10.020;2023-01-13T10:53:55;11.47;;;2.57;;
5742;SDS011;2896;53.500;10.020;2023-01-13T10:56:27;13.83;;;3.13;;
5742;SDS011;2896;53.500;10.020;2023-01-13T10:59:12;9.87;;;3.70;;
5742;SDS011;2896;53.500;10.020;2023-01-13T11:01:41;8.30;;;3.10;;
5742;SDS011;2896;53.500;10.020;2023-01-13T11:04:25;17.13;;;3.73;;
5742;SDS011;2896;53.500;10.020;2023-01-13T11:06:53;7.10;;;2.00;;
5742;SDS011;2896;53.500;10.020;2023-01-13T11:09:21;11.00;;;2.93;;
5742;SDS011;2896;53.500;10.020;2023-01-13T11:11:50;14.47;;;3.00;;
5742;SDS011;2896;53.500;10.020;2023-01-13T11:14:20;22.13;;;3.70;;
5742;SDS011;2896;53.500;10.020;2023-01-13T11:17:02;15.40;;;2.83;;
5742;SDS011;2896;53.500;10.020;2023-01-13T11:19:36;25.30;;;3.70;;
5742;SDS011;2896;53.500;10.020;2023-01-13T11:22:07;18.77;;;3.53;;
5742;SDS011;2896;53.500;10.020;2023-01-13T11:24:41;17.70;;;4.30;;
5742;SDS011;2896;53.500;10.020;2023-01-13T11:27:12;10.83;;;2.77;;
5742;SDS011;2896;53.500;10.020;2023-01-13T11:29:44;18.23;;;3.80;;
5742;SDS011;2896;53.500;10.020;2023-01-13T11:32:23;20.87;;;4.33;;
5742;SDS011;2896;53.500;10.020;2023-01-13T11:34:52;9.63;;;2.63;;
5742;SDS011;2896;53.500;10.020;2023-01-13T11:37:24;8.67;;;2.83;;
5742;SDS011;2896;53.500;10.020;2023-01-13T11:39:53;9.17;;;2.40;;
5742;SDS011;2896;53.500;10.020;2023-01-13T11:42:29;15.97;;;3.43;;
5742;SDS011;2896;53.500;10.020;2023-01-13T11:45:03;9.20;;;2.80;;
5742;SDS011;2896;53.500;10.020;2023-01-13T11:47:35;12.03;;;2.60;;
5742;SDS011;2896;53.500;10.020;2023-01-13T11:50:11;13.00;;;3.30;;
5742;SDS011;2896;53.500;10.020;2023-01-13T11:52:47;8.73;;;3.40;;
5742;SDS011;2896;53.500;10.020;2023-01-13T11:55:28;11.20;;;3.03;;
5742;SDS011;2896;53.500;10.020;2023-01-13T11:58:21;10.10;;;2.17;;
5742;SDS011;2896;53.500;10.020;2023-01-13T12:01:04;6.47;;;2.33;;
5742;SDS011;2896;53.500;10.020;2023-01-13T12:03:45;7.40;;;2.13;;
5742;SDS011;2896;53.500;10.020;2023-01-13T12:06:20;5.37;;;2.13;;
5742;SDS011;2896;53.500;10.020;2023-01-13T12:09:09;5.30;;;2.37;;
5742;SDS011;2896;53.500;10.020;2023-01-13T12:11:52;5.27;;;2.17;;
5742;SDS011;2896;53.500;10.020;2023-01-13T12:14:57;9.30;;;2.33;;
5742;SDS011;2896;53.500;10.020;2023-01-13T12:17:33;10.77;;;3.03;;
5742;SDS011;2896;53.500;10.020;2023-01-13T12:20:11;14.10;;;2.40;;
5742;SDS011;2896;53.500;10.020;2023-01-13T12:22:50;8.53;;;2.63;;
5742;SDS011;2896;53.500;10.020;2023-01-13T12:25:19;11.80;;;3.30;;
5742;SDS011;2896;53.500;10.020;2023-01-13T12:27:54;8.43;;;2.90;;
5742;SDS011;2896;53.500;10.020;2023-01-13T12:30:26;5.20;;;2.33;;
5742;SDS011;2896;53.500;10.020;2023-01-13T12:33:02;15.40;;;3.33;;
5742;SDS011;2896;53.500;10.020;2023-01-13T12:35:38;11.20;;;3.10;;
5742;SDS011;2896;53.500;10.020;2023-01-13T12:38:12;16.70;;;3.90;;
5742;SDS011;2896;53.500;10.020;2023-01-13T12:40:49;16.87;;;3.37;;
5742;SDS011;2896;53.500;10.020;2023-01-13T12:43:25;12.37;;;3.37;;
5742;SDS011;2896;53.500;10.020;2023-01-13T12:49:16;14.80;;;3.20;;
5742;SDS011;2896;53.500;10.020;2023-01-13T12:51:58;13.93;;;3.23;;
5742;SDS011;2896;53.500;10.020;2023-01-13T12:57:27;19.50;;;4.17;;
5742;SDS011;2896;53.500;10.020;2023-01-13T13:00:16;15.10;;;3.13;;
5742;SDS011;2896;53.500;10.020;2023-01-13T13:03:12;11.40;;;2.97;;
5742;SDS011;2896;53.500;10.020;2023-01-13T13:05:47;17.03;;;3.60;;
5742;SDS011;2896;53.500;10.020;2023-01-13T13:08:22;13.53;;;3.63;;
5742;SDS011;2896;53.500;10.020;2023-01-13T13:14:00;14.60;;;3.40;;
5742;SDS011;2896;53.500;10.020;2023-01-13T13:16:34;9.43;;;2.93;;
5742;SDS011;2896;53.500;10.020;2023-01-13T13:25:24;11.03;;;2.97;;
5742;SDS011;2896;53.500;10.020;2023-01-13T13:27:56;8.50;;;3.50;;
5742;SDS011;2896;53.500;10.020;2023-01-13T13:30:33;8.80;;;3.23;;
5742;SDS011;2896;53.500;10.020;2023-01-13T13:33:05;16.10;;;4.23;;
5742;SDS011;2896;53.500;10.020;2023-01-13T13:35:43;6.97;;;2.70;;
5742;SDS011;2896;53.500;10.020;2023-01-13T13:38:26;13.10;;;3.23;;
5742;SDS011;2896;53.500;10.020;2023-01-13T13:41:24;8.13;;;3.23;;
5742;SDS011;2896;53.500;10.020;2023-01-13T13:44:12;11.70;;;3.50;;
5742;SDS011;2896;53.500;10.020;2023-01-13T13:46:59;18.10;;;3.90;;
5742;SDS011;2896;53.500;10.020;2023-01-13T13:49:34;20.20;;;3.10;;
5742;SDS011;2896;53.500;10.020;2023-01-13T13:52:05;7.87;;;2.80;;
5742;SDS011;2896;53.500;10.020;2023-01-13T13:54:39;15.93;;;3.57;;
5742;SDS011;2896;53.500;10.020;2023-01-13T13:57:12;7.77;;;3.13;;
5742;SDS011;2896;53.500;10.020;2023-01-13T13:59:43;13.53;;;3.30;;
5742;SDS011;2896;53.500;10.020;2023-01-13T14:02:14;9.70;;;3.07;;
5742;SDS011;2896;53.500;10.020;2023-01-13T14:04:44;27.17;;;3.50;;
5742;SDS011;2896;53.500;10.020;2023-01-13T14:07:14;12.70;;;3.00;;
5742;SDS011;2896;53.500;10.020;2023-01-13T14:09:45;8.63;;;2.93;;
5742;SDS011;2896;53.500;10.020;2023-01-13T14:12:15;16.10;;;2.43;;
5742;SDS011;2896;53.500;10.020;2023-01-13T14:14:45;16.43;;;3.57;;
5742;SDS011;2896;53.500;10.020;2023-01-13T14:17:17;12.53;;;2.90;;
5742;SDS011;2896;53.500;10.020;2023-01-13T14:19:49;12.70;;;3.40;;
5742;SDS011;2896;53.500;10.020;2023-01-13T14:22:17;14.43;;;3.40;;
5742;SDS011;2896;53.500;10.020;2023-01-13T14:24:45;13.50;;;2.80;;
5742;SDS011;2896;53.500;10.020;2023-01-13T14:27:19;7.20;;;3.10;;
5742;SDS011;2896;53.500;10.020;2023-01-13T14:29:47;6.37;;;2.80;;
5742;SDS011;2896;53.500;10.020;2023-01-13T14:32:18;10.73;;;2.53;;
5742;SDS011;2896;53.500;10.020;2023-01-13T14:34:46;13.93;;;3.53;;
5742;SDS011;2896;53.500;10.020;2023-01-13T14:37:21;9.80;;;3.33;;
5742;SDS011;2896;53.500;10.020;2023-01-13T14:39:49;8.33;;;2.60;;
5742;SDS011;2896;53.500;10.020;2023-01-13T14:42:16;6.77;;;2.43;;
5742;SDS011;2896;53.500;10.020;2023-01-13T14:44:43;10.70;;;2.57;;
5742;SDS011;2896;53.500;10.020;2023-01-13T14:47:18;14.63;;;3.70;;
5742;SDS011;2896;53.500;10.020;2023-01-13T14:49:56;8.83;;;3.23;;
5742;SDS011;2896;53.500;10.020;2023-01-13T14:52:27;11.60;;;3.20;;
5742;SDS011;2896;53.500;10.020;2023-01-13T14:55:12;7.07;;;2.90;;
5742;SDS011;2896;53.500;10.020;2023-01-13T14:57:47;12.70;;;3.87;;
5742;SDS011;2896;53.500;10.020;2023-01-13T15:00:19;14.57;;;4.33;;
5742;SDS011;2896;53.500;10.020;2023-01-13T15:02:58;14.17;;;3.10;;
5742;SDS011;2896;53.500;10.020;2023-01-13T15:08:28;14.23;;;4.00;;
5742;SDS011;2896;53.500;10.020;2023-01-13T15:10:57;14.60;;;2.63;;
5742;SDS011;2896;53.500;10.020;2023-01-13T15:13:26;12.33;;;3.30;;
5742;SDS011;2896;53.500;10.020;2023-01-13T15:16:00;11.70;;;2.93;;
5742;SDS011;2896;53.500;10.020;2023-01-13T15:18:29;10.70;;;2.97;;
5742;SDS011;2896;53.500;10.020;2023-01-13T15:20:56;14.27;;;3.80;;
5742;SDS011;2896;53.500;10.020;2023-01-13T15:23:22;11.17;;;3.30;;
5742;SDS011;2896;53.500;10.020;2023-01-13T15:25:49;18.27;;;3.73;;
5742;SDS011;2896;53.500;10.020;2023-01-13T15:28:18;10.63;;;3.40;;
5742;SDS011;2896;53.500;10.020;2023-01-13T15:30:46;11.83;;;3.90;;
5742;SDS011;2896;53.500;10.020;2023-01-13T15:33:13;14.33;;;3.57;;
5742;SDS011;2896;53.500;10.020;2023-01-13T15:35:42;17.47;;;4.00;;